createdAt,value
2022-11-12T00:03:03.474Z,7.43
2022-11-12T00:08:35.235Z,7.38
2022-11-12T00:14:06.849Z,7.31
2022-11-12T00:19:38.243Z,7.25
2022-11-12T00:25:09.684Z,7.26
2022-11-12T00:30:41.450Z,7.26
2022-11-12T00:41:42.823Z,7.18
2022-11-12T00:47:14.477Z,7.14
2022-11-12T00:52:46.422Z,7.10
2022-11-12T00:58:18.122Z,7.05
2022-11-12T01:03:49.872Z,6.94
2022-11-12T01:09:21.616Z,6.79
2022-11-12T01:14:53.067Z,6.69
2022-11-12T01:20:24.915Z,6.56
2022-11-12T01:25:56.726Z,6.55
2022-11-12T01:31:28.290Z,6.56
2022-11-12T01:37:00.047Z,6.60
2022-11-12T01:42:31.799Z,6.70
2022-11-12T01:48:03.540Z,6.72
2022-11-12T01:53:35.644Z,6.79
2022-11-12T01:59:07.708Z,6.82
2022-11-12T02:04:39.317Z,6.88
2022-11-12T02:10:11.287Z,6.90
2022-11-12T02:15:43.014Z,6.98
2022-11-12T02:21:14.819Z,6.98
2022-11-12T02:26:46.192Z,7.04
2022-11-12T02:32:17.815Z,7.03
2022-11-12T02:37:49.511Z,7.03
2022-11-12T02:43:21.288Z,7.05
2022-11-12T02:48:53.442Z,7.07
2022-11-12T02:54:25.561Z,7.10
2022-11-12T02:59:57.199Z,7.08
2022-11-12T03:05:28.825Z,7.14
2022-11-12T03:11:00.654Z,7.18
2022-11-12T03:16:32.552Z,7.18
2022-11-12T03:22:04.819Z,7.14
2022-11-12T03:27:36.721Z,7.10
2022-11-12T03:33:08.495Z,7.07
2022-11-12T03:38:40.382Z,7.04
2022-11-12T03:44:12.021Z,7.03
2022-11-12T03:49:43.830Z,7.03
2022-11-12T03:55:15.557Z,7.01
2022-11-12T04:00:47.412Z,7.03
2022-11-12T04:06:19.114Z,7.05
2022-11-12T04:11:51.019Z,7.07
2022-11-12T04:17:22.798Z,7.07
2022-11-12T04:22:54.498Z,7.05
2022-11-12T04:25:18.327Z,0.00
2022-11-12T04:30:50.080Z,7.07
2022-11-12T04:36:21.429Z,7.08
2022-11-12T04:41:53.146Z,7.05
2022-11-12T04:47:24.672Z,7.01
2022-11-12T04:52:56.189Z,6.95
2022-11-12T04:58:27.796Z,6.86
2022-11-12T05:03:59.551Z,6.83
2022-11-12T05:09:31.344Z,6.80
2022-11-12T05:15:03.142Z,6.86
2022-11-12T05:20:34.682Z,6.86
2022-11-12T05:26:06.250Z,6.90
2022-11-12T05:31:37.896Z,6.90
2022-11-12T05:37:09.797Z,6.90
2022-11-12T05:42:41.543Z,6.93
2022-11-12T05:48:13.185Z,6.91
2022-11-12T05:53:44.922Z,6.90
2022-11-12T05:59:16.598Z,6.90
2022-11-12T06:04:48.366Z,6.86
2022-11-12T06:10:20.763Z,6.86
2022-11-12T06:15:51.926Z,6.87
2022-11-12T06:21:23.683Z,6.87
2022-11-12T06:26:55.506Z,6.86
2022-11-12T06:32:27.330Z,6.83
2022-11-12T06:40:19.688Z,0.00
2022-11-12T06:45:50.395Z,7.01
2022-11-12T06:51:21.600Z,7.04
2022-11-12T06:56:53.501Z,7.16
2022-11-12T07:02:25.330Z,7.15
2022-11-12T07:07:57.303Z,7.24
2022-11-12T07:13:29.127Z,7.28
2022-11-12T07:19:00.733Z,7.39
2022-11-12T07:24:32.630Z,7.45
2022-11-12T07:30:04.464Z,7.54
2022-11-12T07:35:36.401Z,7.60
2022-11-12T07:41:07.927Z,7.59
2022-11-12T07:46:39.691Z,7.54
2022-11-12T07:52:11.215Z,7.52
2022-11-12T07:57:43.218Z,7.52
2022-11-12T08:03:14.837Z,7.56
2022-11-12T08:08:46.671Z,7.60
2022-11-12T08:14:18.643Z,7.86
2022-11-12T08:19:50.280Z,7.98
2022-11-12T08:25:22.157Z,8.19
2022-11-12T08:30:53.924Z,8.29
2022-11-12T08:36:25.817Z,8.39
2022-11-12T08:41:57.529Z,8.65
2022-11-12T08:47:29.353Z,8.84
2022-11-12T08:53:01.158Z,9.12
2022-11-12T08:58:33.100Z,9.22
2022-11-12T09:04:04.940Z,9.47
2022-11-12T09:09:36.822Z,9.55
2022-11-12T09:15:36.993Z,9.64
2022-11-12T09:20:39.911Z,9.65
2022-11-12T09:26:12.069Z,9.71
2022-11-12T09:31:43.510Z,9.74
2022-11-12T09:37:15.541Z,9.77
2022-11-12T09:42:47.573Z,9.78
2022-11-12T09:48:19.697Z,9.81
2022-11-12T09:53:51.502Z,9.92
2022-11-12T09:59:23.339Z,10.20
2022-11-12T10:04:55.343Z,10.35
2022-11-12T10:10:27.179Z,10.61
2022-11-12T10:15:59.154Z,10.70
2022-11-12T10:21:30.956Z,10.70
2022-11-12T10:27:02.661Z,10.74
2022-11-12T10:32:34.488Z,10.71
2022-11-12T10:38:06.221Z,10.67
2022-11-12T10:43:43.729Z,10.68
2022-11-12T10:49:15.588Z,10.71
2022-11-12T10:54:52.395Z,10.85
2022-11-12T11:00:19.115Z,10.91
2022-11-12T11:05:51.095Z,11.10
2022-11-12T11:11:22.638Z,11.20
2022-11-12T11:16:54.650Z,11.26
2022-11-12T11:24:46.895Z,11.47
2022-11-12T11:30:17.810Z,11.61
2022-11-12T11:35:49.526Z,11.60
2022-11-12T11:41:21.313Z,11.61
2022-11-12T11:46:53.104Z,11.57
2022-11-12T11:52:24.901Z,11.40
2022-11-12T12:03:30.408Z,11.20
2022-11-12T12:08:58.224Z,11.12
2022-11-12T12:14:29.929Z,10.98
2022-11-12T12:20:01.715Z,10.90
2022-11-12T12:33:22.771Z,10.90
2022-11-12T12:38:54.736Z,10.75
2022-11-12T12:44:26.490Z,10.84
2022-11-12T12:49:58.449Z,10.81
2022-11-12T12:55:29.995Z,10.82
2022-11-12T13:01:01.898Z,10.84
2022-11-12T13:06:33.712Z,10.88
2022-11-12T13:12:05.599Z,10.84
2022-11-12T13:17:37.666Z,10.91
2022-11-12T13:23:09.463Z,10.87
2022-11-12T13:28:40.843Z,10.84
2022-11-12T13:34:12.950Z,10.81
2022-11-12T13:39:44.682Z,10.71
2022-11-12T13:45:16.362Z,10.65
2022-11-12T13:50:48.279Z,10.54
2022-11-12T13:56:20.392Z,10.53
2022-11-12T14:01:52.300Z,10.47
2022-11-12T14:07:24.317Z,10.46
2022-11-12T14:12:56.283Z,10.44
2022-11-12T14:18:28.464Z,10.33
2022-11-12T14:23:59.739Z,10.30
2022-11-12T14:29:35.275Z,10.29
2022-11-12T14:35:03.194Z,10.27
2022-11-12T14:40:34.931Z,10.26
2022-11-12T14:46:06.815Z,10.19
2022-11-12T14:51:38.533Z,10.06
2022-11-12T14:57:10.400Z,9.90
2022-11-12T15:02:55.679Z,9.84
2022-11-12T15:08:13.791Z,9.71
2022-11-12T15:13:45.691Z,9.65
2022-11-12T15:19:17.474Z,9.46
2022-11-12T15:24:49.197Z,9.43
2022-11-12T15:30:20.623Z,9.43
2022-11-12T15:35:52.547Z,9.42
2022-11-12T15:41:24.773Z,9.44
2022-11-12T15:46:56.657Z,9.46
2022-11-12T15:52:28.314Z,9.36
2022-11-12T15:58:00.257Z,9.26
2022-11-12T16:03:31.879Z,9.19
2022-11-12T16:09:03.730Z,9.09
2022-11-12T16:14:35.811Z,9.09
2022-11-12T16:20:07.435Z,8.99
2022-11-12T16:25:38.902Z,8.97
2022-11-12T16:31:11.056Z,8.78
2022-11-12T16:36:42.788Z,8.70
2022-11-12T16:47:44.094Z,8.67
2022-11-12T16:53:15.638Z,8.52
2022-11-12T16:58:47.074Z,8.50
2022-11-12T17:04:19.098Z,8.43
2022-11-12T17:09:51.020Z,8.40
2022-11-12T17:20:51.976Z,8.31
2022-11-12T17:26:23.943Z,8.36
2022-11-12T17:31:55.872Z,8.42
2022-11-12T17:37:27.719Z,8.40
2022-11-12T17:42:59.550Z,8.43
2022-11-12T17:48:31.462Z,8.39
2022-11-12T17:54:03.154Z,8.37
2022-11-12T17:59:34.937Z,8.35
2022-11-12T18:05:06.839Z,8.28
2022-11-12T18:10:38.551Z,8.26
2022-11-12T18:16:14.452Z,8.14
2022-11-12T18:21:42.265Z,8.08
2022-11-12T18:27:14.170Z,8.04
2022-11-12T18:32:45.977Z,8.04
2022-11-12T18:38:17.587Z,8.09
2022-11-12T18:43:49.342Z,8.09
2022-11-12T18:49:21.531Z,8.16
2022-11-12T18:54:53.780Z,8.14
2022-11-12T19:00:25.491Z,8.05
2022-11-12T19:05:57.080Z,7.96
2022-11-12T19:11:28.967Z,7.88
2022-11-12T19:17:00.845Z,7.83
2022-11-12T19:22:32.736Z,7.84
2022-11-12T19:33:33.949Z,7.86
2022-11-12T19:39:06.120Z,7.86
2022-11-12T19:44:38.180Z,7.88
2022-11-12T19:55:40.041Z,7.93
2022-11-12T20:01:11.353Z,7.91
2022-11-12T20:06:42.878Z,7.81
2022-11-12T20:12:14.978Z,7.77
2022-11-12T20:17:46.907Z,7.76
2022-11-12T20:23:18.554Z,7.77
2022-11-12T20:28:50.337Z,7.71
2022-11-12T20:34:22.053Z,7.66
2022-11-12T20:39:53.974Z,7.71
2022-11-12T20:45:25.775Z,7.78
2022-11-12T20:51:22.104Z,7.78
2022-11-12T20:56:29.484Z,7.83
2022-11-12T21:02:01.179Z,7.84
2022-11-12T21:07:32.983Z,7.83
2022-11-12T21:13:05.113Z,7.81
2022-11-12T21:18:36.710Z,7.80
2022-11-12T21:24:08.712Z,7.74
2022-11-12T21:29:40.493Z,7.77
2022-11-12T21:35:12.569Z,7.77
2022-11-12T21:37:35.892Z,7.84
2022-11-12T21:43:07.659Z,7.87
2022-11-12T21:48:39.640Z,7.93
2022-11-12T21:54:11.197Z,7.93
2022-11-12T21:59:42.966Z,7.78
2022-11-12T22:05:15.074Z,7.78
2022-11-12T22:10:46.559Z,7.77
2022-11-12T22:16:18.475Z,7.71
2022-11-12T22:21:50.057Z,7.66
2022-11-12T22:27:21.701Z,7.61
2022-11-12T22:32:53.510Z,7.49
2022-11-12T22:38:25.375Z,7.41
2022-11-12T22:43:56.878Z,7.24
2022-11-12T22:49:28.449Z,7.18
2022-11-12T22:55:00.388Z,6.95
2022-11-12T23:00:32.193Z,6.82
2022-11-12T23:06:04.107Z,6.79
2022-11-12T23:11:35.704Z,6.80
2022-11-12T23:17:07.511Z,6.80
2022-11-12T23:22:39.266Z,6.82
2022-11-12T23:28:10.859Z,6.75
2022-11-12T23:33:42.908Z,6.77
2022-11-12T23:39:14.556Z,6.77
2022-11-12T23:44:46.255Z,6.76
2022-11-12T23:50:18.014Z,6.73
2022-11-12T23:55:49.822Z,6.72
